sensor_id;sensor_type;location;lat;lon;timestamp;pressure;altitude;pressure_sealevel;temperature;humidity
37710;BME280;60223;34.854;-92.408;2022-09-09T00:00:46;99912.60;;;30.73;23.89
37710;BME280;60223;34.854;-92.408;2022-09-09T00:03:14;99910.66;;;30.68;23.86
37710;BME280;60223;34.854;-92.408;2022-09-09T00:05:37;99910.09;;;31.26;23.26
37710;BME280;60223;34.854;-92.408;2022-09-09T00:08:02;99915.70;;;30.86;23.84
37710;BME280;60223;34.854;-92.408;2022-09-09T00:10:29;99909.79;;;31.61;23.17
37710;BME280;60223;34.854;-92.408;2022-09-09T00:12:54;99908.42;;;31.39;23.50
37710;BME280;60223;34.854;-92.408;2022-09-09T00:15:18;99913.92;;;31.26;23.33
37710;BME280;60223;34.854;-92.408;2022-09-09T00:17:43;99913.07;;;31.64;22.61
37710;BME280;60223;34.854;-92.408;2022-09-09T00:20:11;99915.05;;;30.81;23.36
37710;BME280;60223;34.854;-92.408;2022-09-09T00:22:34;99913.82;;;31.44;23.61
37710;BME280;60223;34.854;-92.408;2022-09-09T00:25:00;99915.43;;;31.30;23.91
37710;BME280;60223;34.854;-92.408;2022-09-09T00:27:29;99915.30;;;31.37;24.20
37710;BME280;60223;34.854;-92.408;2022-09-09T00:29:54;99918.93;;;32.12;23.80
37710;BME280;60223;34.854;-92.408;2022-09-09T00:32:16;99920.73;;;31.99;24.12
37710;BME280;60223;34.854;-92.408;2022-09-09T00:34:47;99920.66;;;31.09;24.92
37710;BME280;60223;34.854;-92.408;2022-09-09T00:37:05;99919.03;;;31.54;24.60
37710;BME280;60223;34.854;-92.408;2022-09-09T00:39:34;99921.38;;;32.29;24.02
37710;BME280;60223;34.854;-92.408;2022-09-09T00:42:05;99918.06;;;31.13;24.96
37710;BME280;60223;34.854;-92.408;2022-09-09T00:44:30;99913.33;;;31.51;24.71
37710;BME280;60223;34.854;-92.408;2022-09-09T00:46:57;99916.48;;;31.79;24.45
37710;BME280;60223;34.854;-92.408;2022-09-09T00:49:21;99918.95;;;31.38;24.93
37710;BME280;60223;34.854;-92.408;2022-09-09T00:51:47;99920.75;;;31.79;24.43
37710;BME280;60223;34.854;-92.408;2022-09-09T00:54:17;99919.97;;;27.48;28.40
37710;BME280;60223;34.854;-92.408;2022-09-09T00:56:33;99929.62;;;24.80;31.20
37710;BME280;60223;34.854;-92.408;2022-09-09T00:59:02;99933.92;;;23.88;31.73
37710;BME280;60223;34.854;-92.408;2022-09-09T01:01:21;99937.78;;;23.84;31.56
37710;BME280;60223;34.854;-92.408;2022-09-09T01:03:51;99935.92;;;23.29;32.39
37710;BME280;60223;34.854;-92.408;2022-09-09T01:06:15;99938.54;;;23.35;32.10
37710;BME280;60223;34.854;-92.408;2022-09-09T01:08:57;99944.39;;;22.62;32.44
37710;BME280;60223;34.854;-92.408;2022-09-09T01:11:02;99946.88;;;22.52;32.75
37710;BME280;60223;34.854;-92.408;2022-09-09T01:13:31;99948.36;;;22.13;32.71
37710;BME280;60223;34.854;-92.408;2022-09-09T01:15:54;99950.48;;;22.45;32.11
37710;BME280;60223;34.854;-92.408;2022-09-09T01:18:19;99953.59;;;22.20;32.59
37710;BME280;60223;34.854;-92.408;2022-09-09T01:20:49;99954.27;;;22.03;32.06
37710;BME280;60223;34.854;-92.408;2022-09-09T01:23:23;99957.69;;;22.33;31.50
37710;BME280;60223;34.854;-92.408;2022-09-09T01:28:05;99959.48;;;27.96;26.51
37710;BME280;60223;34.854;-92.408;2022-09-09T01:30:28;99958.88;;;29.00;25.16
37710;BME280;60223;34.854;-92.408;2022-09-09T01:32:53;99962.25;;;30.08;24.34
37710;BME280;60223;34.854;-92.408;2022-09-09T01:35:29;99962.94;;;30.50;23.80
37710;BME280;60223;34.854;-92.408;2022-09-09T01:37:44;99965.14;;;30.53;24.18
37710;BME280;60223;34.854;-92.408;2022-09-09T01:40:10;99969.73;;;30.95;23.71
37710;BME280;60223;34.854;-92.408;2022-09-09T01:42:35;99975.43;;;31.20;23.51
37710;BME280;60223;34.854;-92.408;2022-09-09T01:45:01;99976.53;;;30.72;23.75
37710;BME280;60223;34.854;-92.408;2022-09-09T01:47:26;99982.41;;;31.20;23.71
37710;BME280;60223;34.854;-92.408;2022-09-09T01:49:52;99982.07;;;31.07;23.64
37710;BME280;60223;34.854;-92.408;2022-09-09T01:52:17;99982.86;;;31.82;23.09
37710;BME280;60223;34.854;-92.408;2022-09-09T01:54:42;99982.48;;;31.55;23.20
37710;BME280;60223;34.854;-92.408;2022-09-09T01:57:15;99982.94;;;32.04;23.14
37710;BME280;60223;34.854;-92.408;2022-09-09T01:59:47;99982.34;;;31.78;23.46
37710;BME280;60223;34.854;-92.408;2022-09-09T02:02:08;99984.01;;;31.00;23.88
37710;BME280;60223;34.854;-92.408;2022-09-09T02:04:35;99986.39;;;31.14;23.92
37710;BME280;60223;34.854;-92.408;2022-09-09T02:06:52;99990.71;;;31.58;23.64
37710;BME280;60223;34.854;-92.408;2022-09-09T02:09:16;99996.70;;;31.21;24.27
37710;BME280;60223;34.854;-92.408;2022-09-09T02:11:40;99998.29;;;31.60;23.70
37710;BME280;60223;34.854;-92.408;2022-09-09T02:14:10;100002.36;;;31.36;23.75
37710;BME280;60223;34.854;-92.408;2022-09-09T02:16:37;100003.69;;;31.16;24.04
37710;BME280;60223;34.854;-92.408;2022-09-09T02:19:01;100009.46;;;30.90;24.34
37710;BME280;60223;34.854;-92.408;2022-09-09T02:21:26;100008.91;;;31.18;24.31
37710;BME280;60223;34.854;-92.408;2022-09-09T02:23:50;100011.33;;;30.98;24.56
37710;BME280;60223;34.854;-92.408;2022-09-09T02:26:16;100015.24;;;30.76;24.62
37710;BME280;60223;34.854;-92.408;2022-09-09T02:28:40;100015.28;;;31.53;24.37
37710;BME280;60223;34.854;-92.408;2022-09-09T02:31:06;100017.42;;;30.67;24.72
37710;BME280;60223;34.854;-92.408;2022-09-09T02:33:32;100016.73;;;31.03;24.54
37710;BME280;60223;34.854;-92.408;2022-09-09T02:35:57;100016.27;;;31.37;24.43
37710;BME280;60223;34.854;-92.408;2022-09-09T02:38:23;100018.11;;;31.55;24.12
37710;BME280;60223;34.854;-92.408;2022-09-09T02:40:48;100016.06;;;31.74;24.18
37710;BME280;60223;34.854;-92.408;2022-09-09T02:43:11;100015.52;;;32.06;23.95
37710;BME280;60223;34.854;-92.408;2022-09-09T02:45:45;100015.90;;;31.98;24.10
37710;BME280;60223;34.854;-92.408;2022-09-09T02:48:12;100019.77;;;31.75;24.05
37710;BME280;60223;34.854;-92.408;2022-09-09T02:50:37;100022.73;;;31.67;24.12
37710;BME280;60223;34.854;-92.408;2022-09-09T02:53:06;100021.44;;;32.18;23.96
37710;BME280;60223;34.854;-92.408;2022-09-09T02:55:26;100021.44;;;32.01;23.90
37710;BME280;60223;34.854;-92.408;2022-09-09T02:57:49;100022.35;;;32.27;23.86
37710;BME280;60223;34.854;-92.408;2022-09-09T03:00:12;100024.53;;;32.13;23.80
37710;BME280;60223;34.854;-92.408;2022-09-09T03:02:38;100034.84;;;32.06;24.13
37710;BME280;60223;34.854;-92.408;2022-09-09T03:05:04;100034.83;;;32.14;24.09
37710;BME280;60223;34.854;-92.408;2022-09-09T03:07:29;100029.47;;;32.32;23.99
37710;BME280;60223;34.854;-92.408;2022-09-09T03:09:52;100034.12;;;31.93;24.15
37710;BME280;60223;34.854;-92.408;2022-09-09T03:12:19;100029.20;;;32.29;24.04
37710;BME280;60223;34.854;-92.408;2022-09-09T03:14:46;100033.46;;;32.38;24.01
37710;BME280;60223;34.854;-92.408;2022-09-09T03:17:11;100044.28;;;32.20;24.15
37710;BME280;60223;34.854;-92.408;2022-09-09T03:19:37;100044.38;;;32.02;24.15
37710;BME280;60223;34.854;-92.408;2022-09-09T03:22:02;100047.29;;;24.82;30.95
37710;BME280;60223;34.854;-92.408;2022-09-09T03:24:25;100043.28;;;22.99;32.35
37710;BME280;60223;34.854;-92.408;2022-09-09T03:26:51;100043.55;;;23.47;31.89
37710;BME280;60223;34.854;-92.408;2022-09-09T03:29:19;100048.24;;;24.90;30.04
37710;BME280;60223;34.854;-92.408;2022-09-09T03:31:44;100043.97;;;24.34;30.29
37710;BME280;60223;34.854;-92.408;2022-09-09T03:34:10;100047.96;;;24.58;29.56
37710;BME280;60223;34.854;-92.408;2022-09-09T03:36:35;100045.33;;;24.50;29.25
37710;BME280;60223;34.854;-92.408;2022-09-09T03:39:02;100047.06;;;25.13;28.29
37710;BME280;60223;34.854;-92.408;2022-09-09T03:41:27;100043.06;;;24.10;29.09
37710;BME280;60223;34.854;-92.408;2022-09-09T03:43:50;100039.42;;;23.90;29.22
37710;BME280;60223;34.854;-92.408;2022-09-09T03:46:18;100040.87;;;23.16;29.74
37710;BME280;60223;34.854;-92.408;2022-09-09T03:48:43;100043.66;;;23.61;28.92
37710;BME280;60223;34.854;-92.408;2022-09-09T03:51:09;100046.97;;;23.44;29.34
37710;BME280;60223;34.854;-92.408;2022-09-09T03:53:34;100050.50;;;23.09;28.98
37710;BME280;60223;34.854;-92.408;2022-09-09T03:56:01;100054.77;;;26.84;26.65
37710;BME280;60223;34.854;-92.408;2022-09-09T03:58:27;100052.19;;;28.15;25.38
37710;BME280;60223;34.854;-92.408;2022-09-09T04:00:56;100051.89;;;29.39;24.36
37710;BME280;60223;34.854;-92.408;2022-09-09T04:05:43;100048.10;;;29.87;23.75
37710;BME280;60223;34.854;-92.408;2022-09-09T04:08:07;100047.82;;;29.78;23.67
37710;BME280;60223;34.854;-92.408;2022-09-09T04:10:34;100043.56;;;30.03;23.61
37710;BME280;60223;34.854;-92.408;2022-09-09T04:12:59;100041.18;;;30.31;23.48
37710;BME280;60223;34.854;-92.408;2022-09-09T04:15:25;100040.47;;;30.20;23.51
37710;BME280;60223;34.854;-92.408;2022-09-09T04:17:51;100049.12;;;30.84;23.04
37710;BME280;60223;34.854;-92.408;2022-09-09T04:20:14;100054.67;;;30.95;23.05
37710;BME280;60223;34.854;-92.408;2022-09-09T04:22:42;100056.89;;;31.24;22.78
37710;BME280;60223;34.854;-92.408;2022-09-09T04:25:07;100060.37;;;31.25;22.71
37710;BME280;60223;34.854;-92.408;2022-09-09T04:27:32;100066.11;;;31.47;22.80
37710;BME280;60223;34.854;-92.408;2022-09-09T04:29:58;100066.98;;;31.34;22.76
37710;BME280;60223;34.854;-92.408;2022-09-09T04:32:21;100069.01;;;31.55;22.67
37710;BME280;60223;34.854;-92.408;2022-09-09T04:34:49;100063.56;;;31.40;22.83
37710;BME280;60223;34.854;-92.408;2022-09-09T04:37:15;100062.64;;;31.78;22.57
37710;BME280;60223;34.854;-92.408;2022-09-09T04:39:40;100064.17;;;31.71;22.69
37710;BME280;60223;34.854;-92.408;2022-09-09T04:42:06;100068.32;;;31.69;22.57
37710;BME280;60223;34.854;-92.408;2022-09-09T04:44:32;100071.90;;;31.80;22.74
37710;BME280;60223;34.854;-92.408;2022-09-09T04:46:55;100066.33;;;31.98;22.65
37710;BME280;60223;34.854;-92.408;2022-09-09T04:49:23;100067.79;;;31.48;22.89
37710;BME280;60223;34.854;-92.408;2022-09-09T04:51:49;100062.86;;;31.60;22.64
37710;BME280;60223;34.854;-92.408;2022-09-09T04:54:14;100061.33;;;31.99;22.79
37710;BME280;60223;34.854;-92.408;2022-09-09T04:56:39;100057.84;;;32.12;22.67
37710;BME280;60223;34.854;-92.408;2022-09-09T04:59:05;100058.47;;;32.10;22.79
37710;BME280;60223;34.854;-92.408;2022-09-09T05:01:28;100060.48;;;31.83;22.77
37710;BME280;60223;34.854;-92.408;2022-09-09T05:03:56;100066.12;;;32.19;22.80
37710;BME280;60223;34.854;-92.408;2022-09-09T05:06:22;100074.13;;;32.09;22.67
37710;BME280;60223;34.854;-92.408;2022-09-09T05:08:48;100077.98;;;32.01;22.79
37710;BME280;60223;34.854;-92.408;2022-09-09T05:11:18;100080.86;;;32.35;22.72
37710;BME280;60223;34.854;-92.408;2022-09-09T05:13:36;100084.93;;;32.18;22.78
37710;BME280;60223;34.854;-92.408;2022-09-09T05:16:04;100087.97;;;31.77;22.88
37710;BME280;60223;34.854;-92.408;2022-09-09T05:18:29;100097.18;;;32.40;22.88
37710;BME280;60223;34.854;-92.408;2022-09-09T05:20:58;100098.23;;;31.81;23.03
37710;BME280;60223;34.854;-92.408;2022-09-09T05:23:21;100101.91;;;31.93;23.13
37710;BME280;60223;34.854;-92.408;2022-09-09T05:28:09;100100.38;;;31.50;23.32
37710;BME280;60223;34.854;-92.408;2022-09-09T05:30:37;100099.44;;;31.82;23.20
37710;BME280;60223;34.854;-92.408;2022-09-09T05:33:03;100101.01;;;32.23;23.04
37710;BME280;60223;34.854;-92.408;2022-09-09T05:35:28;100102.64;;;31.57;23.39
37710;BME280;60223;34.854;-92.408;2022-09-09T05:37:52;100102.53;;;31.85;23.22
37710;BME280;60223;34.854;-92.408;2022-09-09T05:40:19;100101.47;;;31.84;23.29
37710;BME280;60223;34.854;-92.408;2022-09-09T05:42:45;100098.18;;;32.19;23.22
37710;BME280;60223;34.854;-92.408;2022-09-09T05:45:09;100095.40;;;32.17;23.43
37710;BME280;60223;34.854;-92.408;2022-09-09T05:47:36;100097.81;;;32.06;23.16
37710;BME280;60223;34.854;-92.408;2022-09-09T05:50:01;100096.47;;;31.84;23.35
37710;BME280;60223;34.854;-92.408;2022-09-09T05:52:27;100095.23;;;32.11;23.18
37710;BME280;60223;34.854;-92.408;2022-09-09T05:54:53;100094.86;;;31.76;23.49
37710;BME280;60223;34.854;-92.408;2022-09-09T05:57:15;100093.89;;;31.91;23.53
37710;BME280;60223;34.854;-92.408;2022-09-09T05:59:49;100092.11;;;32.00;23.29
37710;BME280;60223;34.854;-92.408;2022-09-09T06:02:09;100089.84;;;32.48;23.35
37710;BME280;60223;34.854;-92.408;2022-09-09T06:04:35;100086.99;;;32.37;23.42
37710;BME280;60223;34.854;-92.408;2022-09-09T06:06:57;100086.96;;;32.40;23.24
37710;BME280;60223;34.854;-92.408;2022-09-09T06:09:26;100085.54;;;31.96;23.43
37710;BME280;60223;34.854;-92.408;2022-09-09T06:11:51;100081.84;;;32.15;23.36
37710;BME280;60223;34.854;-92.408;2022-09-09T06:14:17;100080.06;;;31.76;23.67
37710;BME280;60223;34.854;-92.408;2022-09-09T06:16:43;100077.92;;;31.90;23.41
37710;BME280;60223;34.854;-92.408;2022-09-09T06:19:06;100072.18;;;31.61;23.85
37710;BME280;60223;34.854;-92.408;2022-09-09T06:21:35;100070.66;;;31.76;23.77
37710;BME280;60223;34.854;-92.408;2022-09-09T06:24:00;100070.16;;;32.37;23.49
37710;BME280;60223;34.854;-92.408;2022-09-09T06:26:25;100067.95;;;32.20;23.42
37710;BME280;60223;34.854;-92.408;2022-09-09T06:28:51;100068.57;;;32.02;23.63
37710;BME280;60223;34.854;-92.408;2022-09-09T06:31:17;100067.77;;;32.00;23.63
37710;BME280;60223;34.854;-92.408;2022-09-09T06:33:42;100069.97;;;32.49;23.47
37710;BME280;60223;34.854;-92.408;2022-09-09T06:36:06;100069.94;;;32.15;23.54
37710;BME280;60223;34.854;-92.408;2022-09-09T06:38:32;100071.44;;;32.17;23.54
37710;BME280;60223;34.854;-92.408;2022-09-09T06:40:59;100068.10;;;32.14;23.62
37710;BME280;60223;34.854;-92.408;2022-09-09T06:43:24;100067.96;;;32.41;23.84
37710;BME280;60223;34.854;-92.408;2022-09-09T06:45:54;100068.06;;;32.48;23.64
37710;BME280;60223;34.854;-92.408;2022-09-09T06:48:14;100068.25;;;32.27;23.63
37710;BME280;60223;34.854;-92.408;2022-09-09T06:50:40;100067.43;;;32.15;23.79
37710;BME280;60223;34.854;-92.408;2022-09-09T06:53:06;100064.51;;;32.04;23.92
37710;BME280;60223;34.854;-92.408;2022-09-09T06:55:29;100062.33;;;32.15;24.26
37710;BME280;60223;34.854;-92.408;2022-09-09T06:57:56;100061.59;;;31.71;24.23
37710;BME280;60223;34.854;-92.408;2022-09-09T07:00:22;100060.65;;;32.23;23.89
37710;BME280;60223;34.854;-92.408;2022-09-09T07:02:48;100056.58;;;31.71;24.28
37710;BME280;60223;34.854;-92.408;2022-09-09T07:05:14;100056.06;;;32.55;23.83
37710;BME280;60223;34.854;-92.408;2022-09-09T07:07:39;100054.13;;;32.36;23.79
37710;BME280;60223;34.854;-92.408;2022-09-09T07:10:04;100056.99;;;32.26;23.88
37710;BME280;60223;34.854;-92.408;2022-09-09T07:12:30;100053.12;;;32.18;23.97
37710;BME280;60223;34.854;-92.408;2022-09-09T07:14:55;100056.23;;;32.24;23.93
37710;BME280;60223;34.854;-92.408;2022-09-09T07:17:21;100050.64;;;32.39;23.83
37710;BME280;60223;34.854;-92.408;2022-09-09T07:19:44;100052.97;;;31.92;24.03
37710;BME280;60223;34.854;-92.408;2022-09-09T07:22:10;100046.07;;;31.59;24.46
37710;BME280;60223;34.854;-92.408;2022-09-09T07:24:37;100042.47;;;32.58;23.92
37710;BME280;60223;34.854;-92.408;2022-09-09T07:27:01;100043.68;;;31.78;24.37
37710;BME280;60223;34.854;-92.408;2022-09-09T07:29:29;100044.64;;;31.94;24.23
37710;BME280;60223;34.854;-92.408;2022-09-09T07:31:54;100044.51;;;32.00;24.21
37710;BME280;60223;34.854;-92.408;2022-09-09T07:34:20;100037.92;;;32.22;24.07
37710;BME280;60223;34.854;-92.408;2022-09-09T07:36:45;100032.04;;;32.39;23.93
37710;BME280;60223;34.854;-92.408;2022-09-09T07:39:11;100032.90;;;32.09;24.18
37710;BME280;60223;34.854;-92.408;2022-09-09T07:41:38;100028.52;;;32.37;23.97
37710;BME280;60223;34.854;-92.408;2022-09-09T07:44:04;100029.55;;;32.22;24.13
37710;BME280;60223;34.854;-92.408;2022-09-09T07:46:29;100037.34;;;32.02;24.29
37710;BME280;60223;34.854;-92.408;2022-09-09T07:48:55;100034.68;;;32.26;24.17
37710;BME280;60223;34.854;-92.408;2022-09-09T07:51:19;100034.26;;;32.08;24.31
37710;BME280;60223;34.854;-92.408;2022-09-09T07:53:45;100025.55;;;32.26;24.16
37710;BME280;60223;34.854;-92.408;2022-09-09T07:56:10;100029.38;;;32.23;24.21
37710;BME280;60223;34.854;-92.408;2022-09-09T07:58:36;100033.22;;;32.09;24.33
37710;BME280;60223;34.854;-92.408;2022-09-09T08:01:06;100030.04;;;32.14;24.10
37710;BME280;60223;34.854;-92.408;2022-09-09T08:03:27;100028.32;;;32.39;24.08
37710;BME280;60223;34.854;-92.408;2022-09-09T08:05:52;100026.94;;;32.22;24.24
37710;BME280;60223;34.854;-92.408;2022-09-09T08:08:18;100024.24;;;32.70;24.26
37710;BME280;60223;34.854;-92.408;2022-09-09T08:10:43;100029.04;;;32.00;24.41
37710;BME280;60223;34.854;-92.408;2022-09-09T08:13:09;100026.48;;;32.21;24.29
37710;BME280;60223;34.854;-92.408;2022-09-09T08:15:33;100029.82;;;32.16;24.34
37710;BME280;60223;34.854;-92.408;2022-09-09T08:18:00;100026.62;;;32.16;24.34
37710;BME280;60223;34.854;-92.408;2022-09-09T08:20:24;100023.90;;;32.35;24.22
37710;BME280;60223;34.854;-92.408;2022-09-09T08:22:51;100030.82;;;31.98;24.51
37710;BME280;60223;34.854;-92.408;2022-09-09T08:25:17;100028.03;;;32.39;24.37
37710;BME280;60223;34.854;-92.408;2022-09-09T08:27:41;100030.08;;;31.63;24.82
37710;BME280;60223;34.854;-92.408;2022-09-09T08:30:09;100025.63;;;32.17;24.41
37710;BME280;60223;34.854;-92.408;2022-09-09T08:32:33;100021.22;;;32.13;24.45
37710;BME280;60223;34.854;-92.408;2022-09-09T08:34:57;100020.60;;;32.84;24.25
37710;BME280;60223;34.854;-92.408;2022-09-09T08:37:24;100021.26;;;31.62;24.87
37710;BME280;60223;34.854;-92.408;2022-09-09T08:39:49;100017.22;;;32.09;24.52
37710;BME280;60223;34.854;-92.408;2022-09-09T08:42:28;100013.69;;;32.19;24.40
37710;BME280;60223;34.854;-92.408;2022-09-09T08:44:52;100020.19;;;31.82;24.74
37710;BME280;60223;34.854;-92.408;2022-09-09T08:47:11;100014.80;;;31.68;24.85
37710;BME280;60223;34.854;-92.408;2022-09-09T08:49:41;100013.47;;;32.02;24.59
37710;BME280;60223;34.854;-92.408;2022-09-09T08:51:57;100016.06;;;31.98;24.62
37710;BME280;60223;34.854;-92.408;2022-09-09T08:54:23;100019.83;;;31.75;24.85
37710;BME280;60223;34.854;-92.408;2022-09-09T08:56:49;100019.04;;;32.13;24.51
37710;BME280;60223;34.854;-92.408;2022-09-09T08:59:14;100017.02;;;31.97;24.45
37710;BME280;60223;34.854;-92.408;2022-09-09T09:01:49;100019.26;;;32.00;24.64
37710;BME280;60223;34.854;-92.408;2022-09-09T09:04:14;100009.97;;;32.12;24.53
37710;BME280;60223;34.854;-92.408;2022-09-09T09:06:40;100012.84;;;31.90;24.74
37710;BME280;60223;34.854;-92.408;2022-09-09T09:09:02;100008.71;;;32.01;24.68
37710;BME280;60223;34.854;-92.408;2022-09-09T09:11:21;100013.00;;;32.16;24.92
37710;BME280;60223;34.854;-92.408;2022-09-09T09:13:52;100006.44;;;31.95;24.51
37710;BME280;60223;34.854;-92.408;2022-09-09T09:16:19;100005.52;;;31.88;24.58
37710;BME280;60223;34.854;-92.408;2022-09-09T09:18:38;100005.06;;;32.00;24.69
37710;BME280;60223;34.854;-92.408;2022-09-09T09:21:08;100004.61;;;31.93;24.50
37710;BME280;60223;34.854;-92.408;2022-09-09T09:23:29;100004.26;;;32.44;24.45
37710;BME280;60223;34.854;-92.408;2022-09-09T09:25:55;100010.41;;;31.79;24.75
37710;BME280;60223;34.854;-92.408;2022-09-09T09:28:26;100010.02;;;32.10;24.48
37710;BME280;60223;34.854;-92.408;2022-09-09T09:30:50;100009.68;;;32.73;24.36
37710;BME280;60223;34.854;-92.408;2022-09-09T09:33:15;100011.37;;;32.18;24.40
37710;BME280;60223;34.854;-92.408;2022-09-09T09:35:37;100015.12;;;31.82;24.51
37710;BME280;60223;34.854;-92.408;2022-09-09T09:38:05;100014.24;;;32.18;24.39
37710;BME280;60223;34.854;-92.408;2022-09-09T09:40:29;100014.74;;;32.16;24.41
37710;BME280;60223;34.854;-92.408;2022-09-09T09:42:54;100008.85;;;32.33;24.51
37710;BME280;60223;34.854;-92.408;2022-09-09T09:45:26;100011.56;;;31.65;24.91
37710;BME280;60223;34.854;-92.408;2022-09-09T09:47:45;100009.96;;;32.18;24.65
37710;BME280;60223;34.854;-92.408;2022-09-09T09:50:16;100004.09;;;31.95;24.65
37710;BME280;60223;34.854;-92.408;2022-09-09T09:52:36;99999.44;;;32.16;24.48
37710;BME280;60223;34.854;-92.408;2022-09-09T09:55:02;99994.61;;;32.04;24.61
37710;BME280;60223;34.854;-92.408;2022-09-09T09:57:30;99996.54;;;32.00;24.63
37710;BME280;60223;34.854;-92.408;2022-09-09T10:00:01;100002.87;;;31.68;24.94
37710;BME280;60223;34.854;-92.408;2022-09-09T10:02:20;100001.24;;;31.97;24.67
37710;BME280;60223;34.854;-92.408;2022-09-09T10:04:45;100005.53;;;31.83;24.77
37710;BME280;60223;34.854;-92.408;2022-09-09T10:07:17;100001.18;;;32.33;24.56
37710;BME280;60223;34.854;-92.408;2022-09-09T10:09:35;100000.71;;;32.24;24.44
37710;BME280;60223;34.854;-92.408;2022-09-09T10:12:06;99999.33;;;32.54;24.57
37710;BME280;60223;34.854;-92.408;2022-09-09T10:14:33;100004.02;;;31.45;25.09
37710;BME280;60223;34.854;-92.408;2022-09-09T10:17:01;100009.20;;;30.87;25.61
37710;BME280;60223;34.854;-92.408;2022-09-09T10:19:19;100009.44;;;32.48;24.67
37710;BME280;60223;34.854;-92.408;2022-09-09T10:24:22;100015.47;;;31.27;25.30
37710;BME280;60223;34.854;-92.408;2022-09-09T10:26:42;100011.63;;;32.17;24.53
37710;BME280;60223;34.854;-92.408;2022-09-09T10:29:13;100015.97;;;30.66;25.59
37710;BME280;60223;34.854;-92.408;2022-09-09T10:31:30;100015.40;;;31.46;25.33
37710;BME280;60223;34.854;-92.408;2022-09-09T10:33:51;100019.35;;;32.26;24.63
37710;BME280;60223;34.854;-92.408;2022-09-09T10:36:20;100021.89;;;30.74;25.73
37710;BME280;60223;34.854;-92.408;2022-09-09T10:38:45;100024.00;;;32.00;24.67
37710;BME280;60223;34.854;-92.408;2022-09-09T10:41:18;100021.34;;;32.17;24.53
37710;BME280;60223;34.854;-92.408;2022-09-09T10:43:48;100021.69;;;31.55;25.02
37710;BME280;60223;34.854;-92.408;2022-09-09T10:46:04;100022.24;;;31.96;24.66
37710;BME280;60223;34.854;-92.408;2022-09-09T10:48:38;100025.04;;;32.00;24.64
37710;BME280;60223;34.854;-92.408;2022-09-09T10:50:58;100024.43;;;32.09;24.59
37710;BME280;60223;34.854;-92.408;2022-09-09T10:53:20;100027.64;;;32.20;24.68
37710;BME280;60223;34.854;-92.408;2022-09-09T10:55:43;100024.39;;;31.85;24.78
37710;BME280;60223;34.854;-92.408;2022-09-09T10:58:09;100024.24;;;31.82;24.82
37710;BME280;60223;34.854;-92.408;2022-09-09T11:00:38;100024.52;;;31.07;25.42
37710;BME280;60223;34.854;-92.408;2022-09-09T11:03:00;100022.01;;;31.28;25.25
37710;BME280;60223;34.854;-92.408;2022-09-09T11:05:26;100015.21;;;32.40;24.50
37710;BME280;60223;34.854;-92.408;2022-09-09T11:07:51;100015.49;;;32.03;24.63
37710;BME280;60223;34.854;-92.408;2022-09-09T11:10:22;100015.40;;;31.69;24.71
37710;BME280;60223;34.854;-92.408;2022-09-09T11:12:43;100018.25;;;31.08;25.39
37710;BME280;60223;34.854;-92.408;2022-09-09T11:15:06;100019.56;;;31.51;24.86
37710;BME280;60223;34.854;-92.408;2022-09-09T11:17:35;100024.61;;;31.96;24.63
37710;BME280;60223;34.854;-92.408;2022-09-09T11:19:53;100026.49;;;31.69;24.87
37710;BME280;60223;34.854;-92.408;2022-09-09T11:22:28;100034.07;;;31.89;24.73
37710;BME280;60223;34.854;-92.408;2022-09-09T11:24:51;100035.12;;;31.84;24.77
37710;BME280;60223;34.854;-92.408;2022-09-09T11:27:17;100038.48;;;32.09;24.54
37710;BME280;60223;34.854;-92.408;2022-09-09T11:29:56;100040.54;;;32.33;24.54
37710;BME280;60223;34.854;-92.408;2022-09-09T11:32:15;100038.46;;;31.89;24.67
37710;BME280;60223;34.854;-92.408;2022-09-09T11:34:40;100040.52;;;31.85;24.71
37710;BME280;60223;34.854;-92.408;2022-09-09T11:37:09;100047.88;;;31.78;24.77
37710;BME280;60223;34.854;-92.408;2022-09-09T11:41:46;100050.36;;;31.93;24.69
37710;BME280;60223;34.854;-92.408;2022-09-09T11:44:17;100052.36;;;32.11;24.75
37710;BME280;60223;34.854;-92.408;2022-09-09T11:46:40;100052.24;;;32.20;24.64
37710;BME280;60223;34.854;-92.408;2022-09-09T11:49:02;100055.16;;;31.91;24.71
37710;BME280;60223;34.854;-92.408;2022-09-09T11:51:31;100057.50;;;31.79;24.84
37710;BME280;60223;34.854;-92.408;2022-09-09T11:53:55;100062.14;;;32.33;24.76
37710;BME280;60223;34.854;-92.408;2022-09-09T11:56:24;100063.80;;;32.03;24.63
37710;BME280;60223;34.854;-92.408;2022-09-09T11:58:53;100065.45;;;31.59;24.79
37710;BME280;60223;34.854;-92.408;2022-09-09T12:03:43;100075.36;;;31.75;24.88
37710;BME280;60223;34.854;-92.408;2022-09-09T12:08:30;100086.65;;;31.85;24.75
37710;BME280;60223;34.854;-92.408;2022-09-09T12:10:58;100089.84;;;31.92;24.78
37710;BME280;60223;34.854;-92.408;2022-09-09T12:13:20;100089.23;;;31.85;24.79
37710;BME280;60223;34.854;-92.408;2022-09-09T12:15:49;100092.44;;;31.98;25.09
37710;BME280;60223;34.854;-92.408;2022-09-09T12:18:14;100094.66;;;31.90;24.89
37710;BME280;60223;34.854;-92.408;2022-09-09T12:20:38;100097.97;;;30.57;26.18
37710;BME280;60223;34.854;-92.408;2022-09-09T12:23:13;100097.79;;;31.73;25.34
37710;BME280;60223;34.854;-92.408;2022-09-09T12:25:33;100096.98;;;31.42;25.61
37710;BME280;60223;34.854;-92.408;2022-09-09T12:28:00;100095.78;;;31.30;25.90
37710;BME280;60223;34.854;-92.408;2022-09-09T12:30:19;100095.70;;;31.43;25.86
37710;BME280;60223;34.854;-92.408;2022-09-09T12:32:43;100095.53;;;31.24;26.29
37710;BME280;60223;34.854;-92.408;2022-09-09T12:35:12;100097.83;;;31.63;25.93
37710;BME280;60223;34.854;-92.408;2022-09-09T12:37:34;100097.86;;;31.41;25.95
37710;BME280;60223;34.854;-92.408;2022-09-09T12:40:00;100096.64;;;31.99;25.83